createdAt,value
2017-11-05T00:01:57.795Z,24.00
2017-11-05T00:04:26.198Z,23.00
2017-11-05T00:06:55.364Z,22.87
2017-11-05T00:09:23.803Z,25.27
2017-11-05T00:11:52.220Z,23.23
2017-11-05T00:14:20.605Z,24.77
2017-11-05T00:16:49.019Z,23.83
2017-11-05T00:19:18.246Z,23.43
2017-11-05T00:21:46.756Z,24.93
2017-11-05T00:24:15.131Z,24.00
2017-11-05T00:26:43.508Z,24.03
2017-11-05T00:29:11.888Z,24.17
2017-11-05T00:31:40.265Z,24.37
2017-11-05T00:34:09.461Z,23.87
2017-11-05T00:36:37.848Z,23.83
2017-11-05T00:39:06.302Z,23.87
2017-11-05T00:41:34.770Z,23.50
2017-11-05T00:44:03.174Z,23.97
2017-11-05T00:46:31.579Z,24.20
2017-11-05T00:48:59.965Z,24.00
2017-11-05T00:51:29.138Z,22.83
2017-11-05T00:53:57.607Z,24.17
2017-11-05T00:56:25.991Z,24.10
2017-11-05T00:58:54.414Z,24.30
2017-11-05T01:01:23.602Z,24.57
2017-11-05T01:03:52.189Z,24.77
2017-11-05T01:06:20.607Z,24.20
2017-11-05T01:08:49.019Z,24.80
2017-11-05T01:11:17.487Z,24.87
2017-11-05T01:13:45.875Z,24.87
2017-11-05T01:16:14.337Z,23.27
2017-11-05T01:18:42.869Z,25.73
2017-11-05T01:21:11.229Z,26.07
2017-11-05T01:23:39.605Z,24.77
2017-11-05T01:26:08.029Z,25.83
2017-11-05T01:28:36.534Z,25.93
2017-11-05T01:31:04.912Z,26.10
2017-11-05T01:33:33.364Z,25.27
2017-11-05T01:36:02.525Z,24.17
2017-11-05T01:38:30.938Z,25.07
2017-11-05T01:41:00.087Z,26.00
2017-11-05T01:43:28.469Z,26.70
2017-11-05T01:45:56.850Z,25.97
2017-11-05T01:48:25.231Z,25.60
2017-11-05T01:50:53.668Z,26.10
2017-11-05T01:53:22.819Z,26.13
2017-11-05T01:55:51.200Z,25.57
2017-11-05T01:58:19.581Z,26.97
2017-11-05T02:00:47.959Z,26.37
2017-11-05T02:03:16.348Z,26.67
2017-11-05T02:05:44.731Z,24.90
2017-11-05T02:08:13.104Z,25.50
2017-11-05T02:10:41.476Z,26.00
2017-11-05T02:13:09.858Z,26.73
2017-11-05T02:15:38.998Z,27.30
2017-11-05T02:18:08.143Z,25.80
2017-11-05T02:20:36.792Z,27.37
2017-11-05T02:23:05.175Z,26.47
2017-11-05T02:25:33.554Z,28.77
2017-11-05T02:28:01.930Z,26.33
2017-11-05T02:30:30.310Z,26.27
2017-11-05T02:32:58.724Z,26.63
2017-11-05T02:35:27.104Z,27.60
2017-11-05T02:37:55.486Z,27.80
2017-11-05T02:40:23.863Z,27.67
2017-11-05T02:42:52.243Z,26.20
2017-11-05T02:45:20.632Z,27.37
2017-11-05T02:47:49.013Z,26.33
2017-11-05T02:50:18.915Z,26.63
2017-11-05T02:52:47.301Z,26.30
2017-11-05T02:55:15.693Z,27.07
2017-11-05T02:57:44.078Z,26.93
2017-11-05T03:00:12.451Z,27.07
2017-11-05T03:02:40.825Z,27.50
2017-11-05T03:05:09.198Z,26.27
2017-11-05T03:07:37.580Z,27.40
2017-11-05T03:10:05.978Z,26.67
2017-11-05T03:12:34.368Z,28.30
2017-11-05T03:15:03.518Z,27.57
2017-11-05T03:17:31.899Z,27.63
2017-11-05T03:20:00.284Z,28.00
2017-11-05T03:22:28.658Z,27.03
2017-11-05T03:24:57.049Z,27.13
2017-11-05T03:27:25.435Z,27.47
2017-11-05T03:29:53.813Z,27.30
2017-11-05T03:32:22.187Z,27.93
2017-11-05T03:34:50.563Z,27.53
2017-11-05T03:37:18.948Z,26.77
2017-11-05T03:39:47.308Z,26.63
2017-11-05T03:42:15.684Z,26.37
2017-11-05T03:44:44.059Z,27.93
2017-11-05T03:47:12.442Z,28.20
2017-11-05T03:49:40.823Z,27.80
2017-11-05T03:52:09.233Z,27.53
2017-11-05T03:54:37.609Z,27.63
2017-11-05T03:57:05.984Z,27.43
2017-11-05T03:59:34.358Z,27.23
2017-11-05T04:02:02.741Z,28.53
2017-11-05T04:04:31.120Z,28.13
2017-11-05T04:06:59.501Z,28.30
2017-11-05T04:09:27.877Z,27.40
2017-11-05T04:11:56.257Z,27.27
2017-11-05T04:14:24.637Z,27.63
2017-11-05T04:16:53.017Z,27.73
2017-11-05T04:19:21.402Z,26.87
2017-11-05T04:21:49.783Z,26.10
2017-11-05T04:24:18.155Z,28.97
2017-11-05T04:26:46.536Z,27.60
2017-11-05T04:29:14.913Z,28.43
2017-11-05T04:31:43.296Z,28.20
2017-11-05T04:34:12.454Z,27.27
2017-11-05T04:36:40.833Z,30.07
2017-11-05T04:39:09.212Z,27.60
2017-11-05T04:41:37.592Z,28.67
2017-11-05T04:44:05.962Z,28.17
2017-11-05T04:46:34.332Z,28.47
2017-11-05T04:49:03.480Z,28.13
2017-11-05T04:51:31.863Z,28.03
2017-11-05T04:54:00.243Z,27.87
2017-11-05T04:56:28.627Z,28.30
2017-11-05T04:58:57.013Z,28.37
2017-11-05T05:01:25.382Z,28.67
2017-11-05T05:03:53.760Z,28.60
2017-11-05T05:06:22.137Z,28.40
2017-11-05T05:08:50.517Z,28.53
2017-11-05T05:11:18.889Z,28.83
2017-11-05T05:13:47.275Z,28.07
2017-11-05T05:16:15.643Z,29.47
2017-11-05T05:18:44.021Z,28.43
2017-11-05T05:21:12.401Z,28.83
2017-11-05T05:23:40.785Z,29.73
2017-11-05T05:26:09.165Z,29.47
2017-11-05T05:28:37.548Z,28.83
2017-11-05T05:31:05.929Z,29.67
2017-11-05T05:33:34.316Z,30.43
2017-11-05T05:36:02.692Z,29.23
2017-11-05T05:38:31.842Z,29.87
2017-11-05T05:41:00.238Z,29.93
2017-11-05T05:43:28.623Z,29.60
2017-11-05T05:45:57.005Z,30.07
2017-11-05T05:48:25.388Z,29.47
2017-11-05T05:50:53.760Z,28.83
2017-11-05T05:53:22.138Z,30.03
2017-11-05T05:55:50.523Z,29.07
2017-11-05T05:58:18.912Z,29.83
2017-11-05T06:00:47.300Z,28.67
2017-11-05T06:03:15.688Z,30.57
2017-11-05T06:05:44.067Z,29.50
2017-11-05T06:08:12.446Z,28.93
2017-11-05T06:10:40.827Z,29.10
2017-11-05T06:13:09.203Z,29.23
2017-11-05T06:15:37.579Z,28.03
2017-11-05T06:18:05.960Z,30.27
2017-11-05T06:20:34.339Z,29.40
2017-11-05T06:23:02.715Z,28.27
2017-11-05T06:25:31.081Z,28.27
2017-11-05T06:27:59.453Z,28.23
2017-11-05T06:30:27.836Z,29.00
2017-11-05T06:32:56.214Z,28.87
2017-11-05T06:35:24.601Z,27.37
2017-11-05T06:37:52.986Z,28.27
2017-11-05T06:40:21.366Z,28.37
2017-11-05T06:42:49.743Z,28.07
2017-11-05T06:45:18.122Z,27.57
2017-11-05T06:47:46.504Z,27.90
2017-11-05T06:50:14.884Z,28.03
2017-11-05T06:52:43.262Z,27.13
2017-11-05T06:55:11.640Z,27.50
2017-11-05T06:57:40.028Z,27.87
2017-11-05T07:00:08.406Z,27.90
2017-11-05T07:02:36.795Z,27.80
2017-11-05T07:05:05.173Z,26.67
2017-11-05T07:07:33.549Z,27.40
2017-11-05T07:10:01.924Z,27.97
2017-11-05T07:12:30.331Z,27.80
2017-11-05T07:14:59.476Z,26.47
2017-11-05T07:17:27.853Z,27.47
2017-11-05T07:19:56.996Z,28.27
2017-11-05T07:22:25.378Z,28.97
2017-11-05T07:24:54.535Z,26.53
2017-11-05T07:27:22.913Z,27.40
2017-11-05T07:29:51.300Z,27.53
2017-11-05T07:32:19.684Z,27.67
2017-11-05T07:34:48.068Z,27.93
2017-11-05T07:37:16.443Z,28.13
2017-11-05T07:39:44.818Z,25.90
2017-11-05T07:42:13.203Z,26.50
2017-11-05T07:44:41.583Z,26.87
2017-11-05T07:47:09.960Z,26.53
2017-11-05T07:49:38.340Z,26.30
2017-11-05T07:52:06.719Z,25.53
2017-11-05T07:54:35.108Z,26.10
2017-11-05T07:57:03.480Z,26.93
2017-11-05T07:59:31.855Z,26.17
2017-11-05T08:02:00.235Z,25.87
2017-11-05T08:04:28.615Z,24.83
2017-11-05T08:06:56.986Z,27.20
2017-11-05T08:09:25.377Z,26.60
2017-11-05T08:11:53.757Z,26.23
2017-11-05T08:14:22.135Z,25.97
2017-11-05T08:16:50.526Z,26.87
2017-11-05T08:19:18.904Z,26.33
2017-11-05T08:21:47.399Z,26.57
2017-11-05T08:24:16.627Z,26.97
2017-11-05T08:26:45.013Z,27.03
2017-11-05T08:29:13.400Z,27.20
2017-11-05T08:31:41.800Z,27.07
2017-11-05T08:34:10.184Z,27.37
2017-11-05T08:36:38.579Z,27.37
2017-11-05T08:39:07.020Z,28.60
2017-11-05T08:41:35.408Z,27.87
2017-11-05T08:44:03.783Z,28.20
2017-11-05T08:46:32.171Z,27.43
2017-11-05T08:49:00.551Z,27.80
2017-11-05T08:51:28.931Z,26.97
2017-11-05T08:53:57.298Z,28.00
2017-11-05T08:56:25.672Z,27.93
2017-11-05T08:58:54.059Z,27.57
2017-11-05T09:01:22.449Z,27.63
2017-11-05T09:03:50.832Z,27.53
2017-11-05T09:06:19.214Z,27.80
2017-11-05T09:08:47.611Z,27.03
2017-11-05T09:11:15.986Z,27.73
2017-11-05T09:13:44.364Z,27.93
2017-11-05T09:16:12.758Z,29.10
2017-11-05T09:18:41.142Z,28.37
2017-11-05T09:21:09.520Z,28.33
2017-11-05T09:23:38.123Z,28.03
2017-11-05T09:26:08.056Z,27.73
2017-11-05T09:28:36.436Z,28.50
2017-11-05T09:31:04.813Z,28.40
2017-11-05T09:33:33.195Z,28.07
2017-11-05T09:36:01.571Z,28.10
2017-11-05T09:38:29.943Z,27.00
2017-11-05T09:40:59.104Z,26.80
2017-11-05T09:43:27.491Z,26.57
2017-11-05T09:45:56.672Z,26.50
2017-11-05T09:48:25.056Z,26.43
2017-11-05T09:50:53.436Z,26.73
2017-11-05T09:53:21.812Z,29.47
2017-11-05T09:55:50.188Z,26.17
2017-11-05T09:58:18.574Z,27.37
2017-11-05T10:00:47.740Z,26.50
2017-11-05T10:03:16.636Z,26.67
2017-11-05T10:05:45.023Z,26.17
2017-11-05T10:08:13.415Z,26.70
2017-11-05T10:10:41.795Z,25.90
2017-11-05T10:13:10.179Z,26.50
2017-11-05T10:15:38.575Z,28.03
2017-11-05T10:18:06.954Z,25.87
2017-11-05T10:20:35.952Z,25.40
2017-11-05T10:23:05.111Z,26.07
2017-11-05T10:25:33.487Z,25.63
2017-11-05T10:28:01.864Z,26.27
2017-11-05T10:30:30.250Z,25.50
2017-11-05T10:32:58.632Z,25.30
2017-11-05T10:35:27.016Z,24.67
2017-11-05T10:37:55.386Z,24.70
2017-11-05T10:40:23.772Z,29.08
2017-11-05T10:42:52.158Z,25.63
2017-11-05T10:45:20.531Z,25.67
2017-11-05T10:47:48.908Z,25.90
2017-11-05T10:50:17.296Z,24.90
2017-11-05T10:52:45.670Z,24.90
2017-11-05T10:55:14.059Z,22.53
2017-11-05T10:57:42.431Z,23.00
2017-11-05T11:00:10.813Z,22.57
2017-11-05T11:02:39.192Z,22.37
2017-11-05T11:05:07.559Z,23.77
2017-11-05T11:07:35.958Z,22.70
2017-11-05T11:10:04.330Z,22.90
2017-11-05T11:12:32.707Z,22.27
2017-11-05T11:15:01.089Z,22.77
2017-11-05T11:17:29.464Z,22.33
2017-11-05T11:19:57.846Z,22.77
2017-11-05T11:22:26.234Z,22.33
2017-11-05T11:24:54.612Z,23.23
2017-11-05T11:27:23.009Z,22.83
2017-11-05T11:29:52.162Z,22.87
2017-11-05T11:32:20.543Z,22.07
2017-11-05T11:34:48.928Z,22.53
2017-11-05T11:37:17.313Z,22.00
2017-11-05T11:39:45.691Z,22.50
2017-11-05T11:42:14.077Z,21.73
2017-11-05T11:44:43.228Z,21.30
2017-11-05T11:47:11.599Z,20.87
2017-11-05T11:49:40.742Z,21.87
2017-11-05T11:52:09.125Z,21.80
2017-11-05T11:54:37.507Z,21.13
2017-11-05T11:57:06.651Z,20.47
2017-11-05T11:59:35.797Z,20.53
2017-11-05T12:02:04.184Z,21.53
2017-11-05T12:04:32.560Z,20.33
2017-11-05T12:07:00.938Z,20.97
2017-11-05T12:09:29.324Z,20.67
2017-11-05T12:11:57.736Z,20.13
2017-11-05T12:14:26.888Z,19.03
2017-11-05T12:16:55.275Z,19.90
2017-11-05T12:19:23.660Z,20.00
2017-11-05T12:21:52.045Z,18.97
2017-11-05T12:24:20.416Z,19.37
2017-11-05T12:26:48.786Z,20.07
2017-11-05T12:29:17.173Z,20.60
2017-11-05T12:31:45.540Z,18.30
2017-11-05T12:34:13.924Z,18.30
2017-11-05T12:36:42.306Z,17.77
2017-11-05T12:39:10.686Z,18.13
2017-11-05T12:41:39.073Z,18.73
2017-11-05T12:44:07.447Z,17.80
2017-11-05T12:46:35.823Z,18.17
2017-11-05T12:49:04.918Z,17.87
2017-11-05T12:51:33.322Z,17.67
2017-11-05T12:54:01.704Z,18.20
2017-11-05T12:56:30.081Z,16.67
2017-11-05T12:58:58.470Z,17.20
2017-11-05T13:01:27.626Z,17.73
2017-11-05T13:03:56.018Z,18.23
2017-11-05T13:06:24.401Z,17.17
2017-11-05T13:08:52.788Z,16.97
2017-11-05T13:11:21.873Z,18.63
2017-11-05T13:13:50.246Z,16.80
2017-11-05T13:16:18.625Z,17.10
2017-11-05T13:18:47.002Z,16.67
2017-11-05T13:21:15.388Z,16.10
2017-11-05T13:23:43.767Z,16.73
2017-11-05T13:26:12.912Z,16.80
2017-11-05T13:28:42.056Z,17.13
2017-11-05T13:31:10.457Z,17.47
2017-11-05T13:33:39.631Z,17.00
2017-11-05T13:36:08.016Z,17.17
2017-11-05T13:38:36.434Z,16.30
2017-11-05T13:41:05.561Z,16.47
2017-11-05T13:43:33.928Z,17.33
2017-11-05T13:46:03.083Z,15.70
2017-11-05T13:48:31.460Z,17.33
2017-11-05T13:50:59.823Z,16.67
2017-11-05T13:53:28.190Z,15.73
2017-11-05T13:55:56.563Z,16.90
2017-11-05T13:58:24.927Z,16.47
2017-11-05T14:00:53.303Z,16.37
2017-11-05T14:03:21.684Z,17.57
2017-11-05T14:05:50.066Z,17.23
2017-11-05T14:08:19.298Z,16.73
2017-11-05T14:10:47.690Z,16.00
2017-11-05T14:13:16.080Z,17.37
2017-11-05T14:15:44.463Z,18.87
2017-11-05T14:18:12.840Z,19.47
2017-11-05T14:20:41.463Z,18.63
2017-11-05T14:23:09.849Z,18.87
2017-11-05T14:25:38.240Z,18.97
2017-11-05T14:28:06.661Z,18.23
2017-11-05T14:30:35.107Z,19.83
2017-11-05T14:33:03.514Z,18.50
2017-11-05T14:35:31.899Z,18.17
2017-11-05T14:38:00.281Z,18.93
2017-11-05T14:40:28.665Z,18.93
2017-11-05T14:42:57.052Z,18.57
2017-11-05T14:45:25.435Z,16.93
2017-11-05T14:47:54.604Z,18.03
2017-11-05T14:50:23.005Z,19.33
2017-11-05T14:52:51.395Z,18.17
2017-11-05T14:55:20.571Z,17.77
2017-11-05T14:57:48.963Z,17.50
2017-11-05T15:00:17.340Z,17.93
2017-11-05T15:02:45.720Z,18.97
2017-11-05T15:05:14.100Z,18.27
2017-11-05T15:07:42.521Z,19.20
2017-11-05T15:10:10.903Z,18.33
2017-11-05T15:12:39.280Z,17.40
2017-11-05T15:15:07.655Z,19.47
2017-11-05T15:17:36.042Z,21.77
2017-11-05T15:20:04.410Z,21.13
2017-11-05T15:22:32.790Z,19.73
2017-11-05T15:25:01.175Z,20.60
2017-11-05T15:27:29.591Z,21.00
2017-11-05T15:29:57.971Z,19.60
2017-11-05T15:32:26.381Z,21.17
2017-11-05T15:34:55.529Z,21.30
2017-11-05T15:37:23.924Z,22.07
2017-11-05T15:39:52.308Z,22.60
2017-11-05T15:42:20.703Z,22.40
2017-11-05T15:44:49.096Z,23.77
2017-11-05T15:47:17.476Z,22.50
2017-11-05T15:49:46.618Z,23.23
2017-11-05T15:52:14.994Z,24.23
2017-11-05T15:54:43.371Z,25.30
2017-11-05T15:57:11.740Z,25.23
2017-11-05T15:59:40.124Z,25.77
2017-11-05T16:02:08.496Z,26.53
2017-11-05T16:04:36.876Z,26.47
2017-11-05T16:07:05.246Z,26.03
2017-11-05T16:09:34.392Z,27.23
2017-11-05T16:12:02.771Z,27.37
2017-11-05T16:14:31.145Z,28.00
2017-11-05T16:16:59.531Z,26.63
2017-11-05T16:19:27.900Z,26.33
2017-11-05T16:21:56.288Z,25.10
2017-11-05T16:24:24.657Z,24.27
2017-11-05T16:26:53.045Z,22.23
2017-11-05T16:29:21.413Z,23.10
2017-11-05T16:31:49.784Z,23.17
2017-11-05T16:34:18.160Z,23.63
2017-11-05T16:36:46.541Z,22.13
2017-11-05T16:39:14.917Z,12.97
2017-11-05T16:41:43.282Z,9.33
2017-11-05T16:44:11.659Z,7.17
2017-11-05T16:46:40.042Z,6.10
2017-11-05T16:49:08.411Z,5.40
2017-11-05T16:51:37.552Z,3.30
2017-11-05T16:54:05.926Z,3.62
2017-11-05T16:56:34.303Z,3.00
2017-11-05T16:59:02.700Z,3.00
2017-11-05T17:01:31.075Z,2.50
2017-11-05T17:03:59.448Z,2.20
2017-11-05T17:06:27.819Z,2.20
2017-11-05T17:08:56.196Z,2.03
2017-11-05T17:11:24.562Z,2.03
2017-11-05T17:13:52.928Z,1.90
2017-11-05T17:16:21.302Z,1.70
2017-11-05T17:18:49.679Z,1.80
2017-11-05T17:21:18.055Z,1.87
2017-11-05T17:23:47.191Z,1.60
2017-11-05T17:26:15.562Z,1.73
2017-11-05T17:28:43.925Z,1.80
2017-11-05T17:31:12.281Z,1.83
2017-11-05T17:33:41.429Z,2.40
2017-11-05T17:36:09.809Z,1.90
2017-11-05T17:38:38.187Z,2.17
2017-11-05T17:41:06.556Z,1.87
2017-11-05T17:43:34.927Z,1.93
2017-11-05T17:46:03.313Z,1.87
2017-11-05T17:48:31.688Z,2.20
2017-11-05T17:51:00.059Z,1.90
2017-11-05T17:53:28.425Z,2.28
2017-11-05T17:55:56.800Z,2.00
2017-11-05T17:58:25.936Z,1.97
2017-11-05T18:00:54.347Z,1.90
2017-11-05T18:03:22.732Z,1.90
2017-11-05T18:05:51.884Z,1.80
2017-11-05T18:08:20.263Z,2.17
2017-11-05T18:10:48.640Z,2.00
2017-11-05T18:13:17.020Z,1.93
2017-11-05T18:15:45.387Z,2.07
2017-11-05T18:18:13.759Z,2.10
2017-11-05T18:20:42.144Z,2.00
2017-11-05T18:23:10.516Z,1.67
2017-11-05T18:25:38.893Z,1.93
2017-11-05T18:28:07.269Z,2.50
2017-11-05T18:30:35.646Z,2.00
2017-11-05T18:33:04.024Z,1.53
2017-11-05T18:35:33.162Z,2.30
2017-11-05T18:38:01.540Z,1.93
2017-11-05T18:40:29.912Z,2.37
2017-11-05T18:42:58.281Z,2.73
2017-11-05T18:45:26.684Z,2.40
2017-11-05T18:47:55.054Z,3.33
2017-11-05T18:50:23.504Z,2.60
2017-11-05T18:52:51.876Z,2.50
2017-11-05T18:55:21.065Z,2.40
2017-11-05T18:57:50.211Z,2.43
2017-11-05T19:00:18.590Z,2.70
2017-11-05T19:02:46.971Z,3.10
2017-11-05T19:05:15.381Z,2.80
2017-11-05T19:07:43.746Z,2.80
2017-11-05T19:10:12.110Z,2.80
2017-11-05T19:12:40.474Z,3.20
2017-11-05T19:15:08.847Z,2.83
2017-11-05T19:17:37.214Z,3.00
2017-11-05T19:20:05.583Z,2.93
2017-11-05T19:22:33.955Z,2.93
2017-11-05T19:25:03.092Z,3.00
2017-11-05T19:27:31.471Z,3.03
2017-11-05T19:29:59.833Z,2.97
2017-11-05T19:32:28.236Z,3.17
2017-11-05T19:34:56.606Z,3.77
2017-11-05T19:37:24.972Z,3.97
2017-11-05T19:39:53.339Z,4.87
2017-11-05T19:42:21.712Z,4.90
2017-11-05T19:44:50.854Z,4.90
2017-11-05T19:47:19.227Z,5.47
2017-11-05T19:49:47.613Z,6.37
2017-11-05T19:52:17.676Z,5.90
2017-11-05T19:54:46.823Z,5.90
2017-11-05T19:57:15.201Z,4.83
2017-11-05T19:59:43.694Z,5.70
2017-11-05T20:02:12.077Z,4.80
2017-11-05T20:04:40.448Z,4.93
2017-11-05T20:07:09.354Z,4.70
2017-11-05T20:09:37.755Z,5.33
2017-11-05T20:12:06.924Z,5.30
2017-11-05T20:14:35.535Z,4.97
2017-11-05T20:17:05.040Z,5.43
2017-11-05T20:19:34.207Z,5.73
2017-11-05T20:22:02.583Z,5.60
2017-11-05T20:24:30.952Z,5.53
2017-11-05T20:26:59.325Z,6.47
2017-11-05T20:29:27.683Z,6.63
2017-11-05T20:31:56.063Z,5.70
2017-11-05T20:34:24.440Z,6.80
2017-11-05T20:36:52.814Z,6.60
2017-11-05T20:39:21.950Z,6.67
2017-11-05T20:41:50.323Z,6.70
2017-11-05T20:44:18.692Z,7.10
2017-11-05T20:46:47.063Z,7.70
2017-11-05T20:49:15.440Z,8.40
2017-11-05T20:51:43.823Z,9.73
2017-11-05T20:54:12.236Z,8.97
2017-11-05T20:56:40.637Z,9.50
2017-11-05T20:59:09.126Z,9.83
2017-11-05T21:01:37.537Z,9.80
2017-11-05T21:04:05.979Z,11.63
2017-11-05T21:06:34.385Z,9.90
2017-11-05T21:09:03.527Z,9.40
2017-11-05T21:11:31.930Z,9.57
2017-11-05T21:14:01.076Z,9.77
2017-11-05T21:16:29.457Z,9.00
2017-11-05T21:18:57.836Z,9.17
2017-11-05T21:21:26.210Z,9.53
2017-11-05T21:23:54.585Z,9.27
2017-11-05T21:26:22.971Z,9.17
2017-11-05T21:28:51.352Z,10.33
2017-11-05T21:31:19.723Z,9.47
2017-11-05T21:33:48.100Z,10.60
2017-11-05T21:36:16.476Z,10.53
2017-11-05T21:38:44.855Z,10.70
2017-11-05T21:41:14.005Z,10.50
2017-11-05T21:43:42.378Z,11.47
2017-11-05T21:46:10.761Z,10.37
2017-11-05T21:48:39.143Z,12.33
2017-11-05T21:51:07.515Z,11.10
2017-11-05T21:53:35.914Z,11.50
2017-11-05T21:56:04.311Z,11.03
2017-11-05T21:58:32.686Z,11.10
2017-11-05T22:01:01.835Z,12.27
2017-11-05T22:03:30.219Z,11.20
2017-11-05T22:05:58.594Z,11.30
2017-11-05T22:08:26.976Z,11.63
2017-11-05T22:10:55.357Z,10.63
2017-11-05T22:13:23.729Z,10.63
2017-11-05T22:15:52.104Z,10.10
2017-11-05T22:18:20.483Z,11.00
2017-11-05T22:20:48.856Z,9.73
2017-11-05T22:23:17.222Z,10.70
2017-11-05T22:25:45.599Z,10.33
2017-11-05T22:28:13.971Z,10.50
2017-11-05T22:30:43.115Z,10.47
2017-11-05T22:33:11.500Z,10.07
2017-11-05T22:35:39.896Z,10.83
2017-11-05T22:38:08.275Z,10.20
2017-11-05T22:40:37.423Z,10.20
2017-11-05T22:43:05.802Z,10.23
2017-11-05T22:45:34.189Z,10.83
2017-11-05T22:48:02.564Z,10.83
2017-11-05T22:50:30.935Z,10.40
2017-11-05T22:52:59.306Z,10.17
2017-11-05T22:55:28.447Z,10.90
2017-11-05T22:57:56.823Z,10.27
2017-11-05T23:00:25.199Z,10.57
2017-11-05T23:02:53.583Z,10.80
2017-11-05T23:05:21.960Z,10.40
2017-11-05T23:07:50.340Z,11.57
2017-11-05T23:10:18.723Z,11.98
2017-11-05T23:12:47.121Z,10.93
2017-11-05T23:15:15.497Z,10.73
2017-11-05T23:17:44.649Z,11.87
2017-11-05T23:20:13.036Z,11.30
2017-11-05T23:22:41.419Z,10.90
2017-11-05T23:25:09.788Z,11.20
2017-11-05T23:27:38.164Z,11.00
2017-11-05T23:30:06.539Z,10.97
2017-11-05T23:32:35.799Z,9.67
2017-11-05T23:35:04.179Z,9.57
2017-11-05T23:37:32.560Z,9.77
2017-11-05T23:40:00.935Z,10.17
2017-11-05T23:42:29.302Z,9.00
2017-11-05T23:44:57.684Z,8.47
2017-11-05T23:47:26.059Z,8.87
2017-11-05T23:49:54.435Z,8.33
2017-11-05T23:52:22.812Z,8.30
2017-11-05T23:54:51.191Z,9.27
2017-11-05T23:57:19.578Z,8.70
2017-11-05T23:59:47.952Z,9.33
